»·PEaware :: ASA611 KSLC-KBZN

ASA611 :: KSLC-KBZN

FLIGHT INFORMATION

Flight Status: Arrived
Operator:
Alaska Airlines
More flights by this operator :: More flights under this callsign
Pilot: Pratham R. (19019)
Aircraft: BOEING 737-700
(B737)
More flights by this aircraft type
Origin: KSLC Salt Lake City Intl
United States
Destination: KBZN Gallatin
United States
More flights between these airports :: More routes between these airports
Route: RUGGD1 HOLTR BRIGR BZN
File this flight plan on PilotEdge
Remarks: RMK / SIMBRIEF
Altitude:
(Current/Filed)
36,000ft
Speed:
(Current/Filed)
452kts
Departed: 16-Jul-20 07:06 PM
Arrived: 16-Jul-20 08:02 PM
Distance/Time
Traveled:
301nm/0:56
Distance/Time
To Go:
Arrived

Flight Plot

Page will automatically refresh every two minutes.

Flight plan parsing failed; only flown route is shown


Map Options




Map Legend


Flown Route
Filed Route
Departure Airport
Arrival Airport
Navaid (VOR, NDB)
Fix

Horizontal Profiles

Position Reports

Time Latitude Longitude Heading Altitude Ground
Speed
16-Jul-20 18:38 40.785565 -111.978041 227 4226ft 0kts
16-Jul-20 18:39 40.785565 -111.978041 227 4226ft 0kts
16-Jul-20 18:40 40.785565 -111.978041 227 4226ft 0kts
16-Jul-20 18:41 40.785565 -111.978041 227 4226ft 0kts
16-Jul-20 18:42 40.785565 -111.978041 227 4226ft 0kts
16-Jul-20 18:43 40.785565 -111.978041 227 4226ft 0kts
16-Jul-20 18:44 40.785565 -111.978041 227 4226ft 0kts
16-Jul-20 18:45 40.785565 -111.978041 227 4226ft 0kts
16-Jul-20 18:46 40.785565 -111.978041 227 4226ft 0kts
16-Jul-20 18:47 40.785565 -111.978041 227 4226ft 0kts
16-Jul-20 18:48 40.785565 -111.978041 227 4226ft 0kts
16-Jul-20 18:49 40.785565 -111.978041 227 4226ft 0kts
16-Jul-20 18:50 40.785565 -111.978041 227 4226ft 0kts
16-Jul-20 18:51 40.785565 -111.978041 227 4226ft 0kts
16-Jul-20 18:52 40.785565 -111.978041 227 4226ft 0kts
16-Jul-20 18:53 40.785565 -111.978041 227 4226ft 0kts
16-Jul-20 18:54 40.785565 -111.978041 227 4226ft 0kts
16-Jul-20 18:55 40.785565 -111.978041 227 4226ft 0kts
16-Jul-20 18:56 40.785892 -111.977629 192 4225ft 2kts
16-Jul-20 18:57 40.786229 -111.977992 83 4224ft 1kts
16-Jul-20 18:58 40.786226 -111.978043 87 4224ft 0kts
16-Jul-20 18:59 40.786226 -111.978043 87 4224ft 0kts
16-Jul-20 19:00 40.786232 -111.977864 87 4224ft 3kts
16-Jul-20 19:01 40.785838 -111.976593 166 4225ft 10kts
16-Jul-20 19:02 40.780817 -111.976014 173 4227ft 21kts
16-Jul-20 19:03 40.775522 -111.975316 144 4227ft 5kts
16-Jul-20 19:04 40.776507 -111.973329 356 4227ft 11kts
16-Jul-20 19:05 40.809682 -111.976952 356 4998ft 166kts
16-Jul-20 19:06 40.849433 -112.016624 308 6305ft 215kts
16-Jul-20 19:07 40.891196 -112.090440 307 7862ft 276kts
16-Jul-20 19:08 40.939487 -112.170886 306 10422ft 302kts
16-Jul-20 19:09 41.012550 -112.229672 13 12408ft 355kts
16-Jul-20 19:10 41.056092 -112.123924 95 15087ft 366kts
16-Jul-20 19:11 41.060893 -111.987360 72 17745ft 386kts
16-Jul-20 19:12 41.106043 -111.858542 55 20218ft 401kts
16-Jul-20 19:13 41.190856 -111.763264 21 22539ft 411kts
16-Jul-20 19:14 41.301998 -111.728193 7 24650ft 420kts
16-Jul-20 19:15 41.418534 -111.696589 13 26640ft 435kts
16-Jul-20 19:16 41.535705 -111.650257 13 28449ft 447kts
16-Jul-20 19:17 41.656505 -111.602781 13 30147ft 458kts
16-Jul-20 19:18 41.779567 -111.554208 13 31906ft 463kts
16-Jul-20 19:19 41.904533 -111.523117 6 33818ft 457kts
16-Jul-20 19:20 42.028688 -111.495097 6 35585ft 452kts
16-Jul-20 19:21 42.154343 -111.466605 6 36082ft 468kts
16-Jul-20 19:22 42.281225 -111.437724 5 36146ft 462kts
16-Jul-20 19:23 42.408844 -111.434285 355 36152ft 460kts
16-Jul-20 19:24 42.536087 -111.435577 356 36183ft 459kts
16-Jul-20 19:25 42.663755 -111.436804 356 36195ft 459kts
16-Jul-20 19:26 42.791024 -111.438032 356 36196ft 459kts
16-Jul-20 19:27 42.918332 -111.439265 355 36192ft 459kts
16-Jul-20 19:28 43.044816 -111.440491 355 36166ft 452kts
16-Jul-20 19:29 43.170148 -111.441731 355 36173ft 452kts
16-Jul-20 19:30 43.295243 -111.442931 355 36174ft 442kts
16-Jul-20 19:31 43.415416 -111.444142 354 36178ft 433kts
16-Jul-20 19:32 43.536483 -111.445337 354 36177ft 436kts
16-Jul-20 19:33 43.657179 -111.446538 354 36177ft 435kts
16-Jul-20 19:34 43.777728 -111.447739 354 36177ft 435kts
16-Jul-20 19:35 43.898630 -111.448949 354 36177ft 435kts
16-Jul-20 19:36 44.019432 -111.450163 355 36176ft 435kts
16-Jul-20 19:37 44.140109 -111.451360 355 36168ft 427kts
16-Jul-20 19:38 44.258896 -111.452601 355 36164ft 431kts
16-Jul-20 19:39 44.378329 -111.453803 355 35678ft 433kts
16-Jul-20 19:40 44.497508 -111.455029 355 34709ft 430kts
16-Jul-20 19:41 44.618180 -111.456309 355 33743ft 445kts
16-Jul-20 19:42 44.742547 -111.457458 355 32394ft 447kts
16-Jul-20 19:43 44.865984 -111.453957 9 29105ft 459kts
16-Jul-20 19:44 44.968143 -111.347698 51 25883ft 465kts
16-Jul-20 19:45 45.044677 -111.205559 51 23224ft 446kts
16-Jul-20 19:46 45.117677 -111.068987 51 20654ft 427kts
16-Jul-20 19:47 45.188448 -110.937418 51 18057ft 411kts
16-Jul-20 19:48 45.268599 -110.836460 13 15963ft 371kts
16-Jul-20 19:49 45.358396 -110.873230 308 13239ft 344kts
16-Jul-20 19:50 45.408100 -110.978886 301 12025ft 297kts
16-Jul-20 19:51 45.451109 -111.072853 301 11992ft 274kts
16-Jul-20 19:52 45.505225 -111.145877 321 11590ft 255kts
16-Jul-20 19:53 45.565896 -111.191881 343 10483ft 248kts
16-Jul-20 19:54 45.631975 -111.214940 354 9340ft 243kts
16-Jul-20 19:56 45.698526 -111.207100 1 7992ft 238kts
16-Jul-20 19:57 45.761530 -111.225839 339 6808ft 218kts
16-Jul-20 19:58 45.812289 -111.257362 332 6158ft 200kts
16-Jul-20 19:59 45.845159 -111.226275 115 5809ft 182kts
16-Jul-20 20:00 45.805721 -111.191616 132 4894ft 160kts
16-Jul-20 20:01 45.778159 -111.152742 135 4456ft 50kts
16-Jul-20 20:02 45.774677 -111.149982 224 4463ft 4kts
16-Jul-20 20:03 45.775656 -111.153357 315 4462ft 21kts
16-Jul-20 20:04 45.778392 -111.157566 231 4456ft 2kts
16-Jul-20 20:05 45.777970 -111.159444 261 4457ft 0kts
16-Jul-20 20:06 45.777968 -111.159464 261 4457ft 0kts
16-Jul-20 20:07 45.777968 -111.159464 261 4457ft 0kts
16-Jul-20 20:08 45.777968 -111.159464 261 4457ft 0kts
16-Jul-20 20:09 45.777968 -111.159464 261 4457ft 0kts
16-Jul-20 20:10 45.777968 -111.159464 261 4457ft 0kts
16-Jul-20 20:11 45.777968 -111.159464 261 4457ft 0kts

Navigation Log

Ident Type
Flight plan parsing failed, navigation log unavailable